Time;durP1;ratioP1;P1;durP2;ratioP2;P2;SDS_P1;SDS_P2;PMS_P1;PMS_P2;Temp;Humidity;BMP_temperature;BMP_pressure;BME280_temperature;BME280_humidity;BME280_pressure;Samples;Min_cycle;Max_cycle;Signal;HPM_P1;HPM_P2
2022/01/15 00:00:04;;;;;;;9.45;5.93;;;7.00;99.90;;;;;;5014948;28;20115;-75
2022/01/15 00:02:30;;;;;;;6.72;4.95;;;7.00;99.90;;;;;;5014616;28;20045;-74
2022/01/15 00:04:56;;;;;;;25.30;7.05;;;7.00;99.90;;;;;;5013759;28;20060;-73
2022/01/15 00:07:21;;;;;;;48.35;8.55;;;7.00;99.90;;;;;;5014703;28;20309;-75
2022/01/15 00:09:50;;;;;;;56.90;8.43;;;7.00;99.90;;;;;;5014355;28;20420;-74
2022/01/15 00:12:16;;;;;;;111.88;9.57;;;7.00;99.90;;;;;;5014835;28;20116;-74
2022/01/15 00:14:42;;;;;;;58.25;7.13;;;6.90;99.90;;;;;;5013249;28;20339;-73
2022/01/15 00:17:16;;;;;;;43.53;5.97;;;6.90;99.90;;;;;;5013158;28;20038;-74
2022/01/15 00:19:42;;;;;;;45.47;5.90;;;6.90;99.90;;;;;;5014248;28;20411;-73
2022/01/15 00:22:16;;;;;;;12.20;3.70;;;6.90;99.90;;;;;;5012999;28;20045;-74
2022/01/15 00:24:42;;;;;;;;;;;6.90;99.90;;;;;;5014546;28;20034;-73
2022/01/15 00:27:09;;;;;;;15.73;3.45;;;6.80;99.90;;;;;;5013122;28;19917;-75
2022/01/15 00:29:35;;;;;;;5.63;3.72;;;6.80;99.90;;;;;;5012895;28;20367;-73
2022/01/15 00:32:03;;;;;;;11.50;3.78;;;6.80;99.90;;;;;;5014142;28;20038;-74
2022/01/15 00:34:29;;;;;;;41.72;3.58;;;6.80;99.90;;;;;;5013483;28;20454;-75
2022/01/15 00:36:55;;;;;;;27.85;3.92;;;6.90;99.90;;;;;;5012596;28;20081;-76
2022/01/15 00:39:21;;;;;;;73.97;5.20;;;6.80;99.90;;;;;;5012074;28;20073;-72
2022/01/15 00:41:47;;;;;;;78.80;5.32;;;6.80;99.90;;;;;;5013845;28;20053;-74
2022/01/15 00:44:12;;;;;;;68.93;5.38;;;6.80;99.90;;;;;;5011864;28;20049;-75
2022/01/15 00:46:38;;;;;;;21.08;4.00;;;6.80;99.90;;;;;;5013737;28;20045;-74
2022/01/15 00:49:04;;;;;;;20.50;4.00;;;6.80;99.90;;;;;;5012765;28;20046;-74
2022/01/15 00:51:30;;;;;;;17.02;3.63;;;6.80;99.90;;;;;;5012225;28;20057;-75
2022/01/15 00:53:55;;;;;;;9.10;3.10;;;6.70;99.90;;;;;;5013602;28;20042;-75
2022/01/15 00:56:21;;;;;;;7.20;3.58;;;6.70;99.90;;;;;;5014074;28;20401;-74
2022/01/15 00:58:47;;;;;;;7.32;2.85;;;6.70;99.90;;;;;;5013689;28;20084;-75
2022/01/15 01:01:12;;;;;;;5.25;2.85;;;6.70;99.90;;;;;;5012491;28;20042;-74
2022/01/15 01:03:38;;;;;;;7.93;3.50;;;6.70;99.90;;;;;;5013220;28;20045;-74
2022/01/15 01:06:04;;;;;;;75.22;3.50;;;6.70;99.90;;;;;;5013558;28;20431;-74
2022/01/15 01:08:29;;;;;;;104.35;3.78;;;6.60;99.90;;;;;;5013640;28;20418;-75
2022/01/15 01:10:59;;;;;;;35.35;2.40;;;6.60;99.90;;;;;;5012163;28;20136;-72
2022/01/15 01:24:23;;;;;;;7.78;1.88;;;6.60;99.90;;;;;;5013359;28;20424;-74
2022/01/15 01:27:03;;;;;;;2.50;1.52;;;6.60;99.90;;;;;;5013115;28;20447;-74
2022/01/15 01:35:05;;;;;;;9.50;2.17;;;6.60;99.90;;;;;;5012001;28;20057;-74
2022/01/15 01:37:36;;;;;;;4.13;1.52;;;6.60;99.90;;;;;;5013339;28;20053;-74
2022/01/15 01:42:58;;;;;;;6.05;1.52;;;6.60;99.90;;;;;;5012919;28;20057;-72
2022/01/15 01:45:23;;;;;;;5.80;2.10;;;6.50;99.90;;;;;;5013037;28;20312;-74
2022/01/15 01:47:49;;;;;;;2.67;1.45;;;6.60;99.90;;;;;;5011896;28;20493;-75
2022/01/15 01:50:21;;;;;;;21.42;2.50;;;6.50;99.90;;;;;;5011997;28;20531;-75
2022/01/15 01:52:50;;;;;;;2.80;1.50;;;6.50;99.90;;;;;;5012840;28;20042;-74
2022/01/15 01:55:17;;;;;;;10.60;2.28;;;6.50;99.90;;;;;;5013852;28;20053;-73
2022/01/15 01:57:43;;;;;;;3.85;1.52;;;6.60;99.90;;;;;;5016894;28;20379;-73
2022/01/15 02:00:12;;;;;;;19.33;2.33;;;6.60;99.90;;;;;;5017107;28;20427;-74
2022/01/15 02:02:38;;;;;;;5.43;2.47;;;6.60;99.90;;;;;;5016611;28;20041;-75
2022/01/15 02:05:04;;;;;;;3.25;1.70;;;6.60;99.90;;;;;;5016871;28;20057;-74
2022/01/15 02:07:30;;;;;;;4.50;1.60;;;6.60;99.90;;;;;;5016672;28;20418;-72
2022/01/15 02:09:57;;;;;;;2.47;1.50;;;6.60;99.90;;;;;;5017207;28;20692;-75
2022/01/15 02:12:24;;;;;;;3.10;1.73;;;6.60;99.90;;;;;;5016293;28;20078;-73
2022/01/15 02:14:50;;;;;;;3.20;1.25;;;6.50;99.90;;;;;;5015940;28;20481;-74
2022/01/15 02:17:18;;;;;;;3.15;1.40;;;6.50;99.90;;;;;;5015856;28;20466;-75
2022/01/15 02:20:08;;;;;;;2.65;1.10;;;6.50;99.90;;;;;;5016790;28;20045;-73
2022/01/15 02:25:14;;;;;;;2.63;1.35;;;6.50;99.90;;;;;;5016527;28;20050;-72
2022/01/15 02:27:40;;;;;;;2.88;1.67;;;6.50;99.90;;;;;;5016714;28;20045;-74
2022/01/15 02:30:06;;;;;;;6.70;1.90;;;6.50;99.90;;;;;;5016467;28;20038;-74
2022/01/15 02:32:32;;;;;;;3.38;1.80;;;6.50;99.90;;;;;;5016363;28;20125;-75
2022/01/15 02:34:59;;;;;;;3.55;1.88;;;6.50;99.90;;;;;;5016336;28;20061;-75
2022/01/15 02:37:25;;;;;;;3.85;1.88;;;6.50;99.90;;;;;;5016610;28;20046;-75
2022/01/15 02:39:51;;;;;;;4.18;1.85;;;6.50;99.90;;;;;;5016461;28;20119;-74
2022/01/15 02:42:16;;;;;;;5.15;2.28;;;6.40;99.90;;;;;;5014826;28;20053;-74
2022/01/15 02:44:43;;;;;;;3.72;2.00;;;6.40;99.90;;;;;;5016011;28;20042;-75
2022/01/15 02:49:35;;;;;;;3.15;1.90;;;6.40;99.90;;;;;;5016210;28;20046;-74
2022/01/15 02:52:01;;;;;;;3.05;1.83;;;6.40;99.90;;;;;;5014508;28;20077;-74
2022/01/15 02:54:26;;;;;;;4.20;2.00;;;6.30;99.90;;;;;;5014411;28;20085;-75
2022/01/15 02:56:52;;;;;;;3.33;1.65;;;6.40;99.90;;;;;;5015716;28;20046;-74
2022/01/15 02:59:25;;;;;;;3.53;1.75;;;6.30;99.90;;;;;;5014717;28;20419;-72
2022/01/15 03:01:51;;;;;;;3.55;1.80;;;6.40;99.90;;;;;;5015792;28;20077;-75
2022/01/15 03:04:18;;;;;;;3.13;1.63;;;6.30;99.90;;;;;;5015749;28;20085;-74
2022/01/15 03:06:44;;;;;;;3.53;1.67;;;6.40;99.90;;;;;;5013860;28;20049;-75
2022/01/15 03:09:09;;;;;;;4.32;1.70;;;6.30;99.90;;;;;;5014980;28;20057;-77
2022/01/15 03:11:35;;;;;;;3.40;1.73;;;6.30;99.90;;;;;;5015438;28;20344;-73
2022/01/15 03:14:01;;;;;;;3.35;1.80;;;6.30;99.90;;;;;;5015636;28;20045;-73
2022/01/15 03:16:28;;;;;;;3.95;2.00;;;6.30;99.90;;;;;;5015243;28;20390;-75
2022/01/15 03:18:54;;;;;;;3.45;1.92;;;6.30;99.90;;;;;;5015558;28;20416;-73
2022/01/15 03:21:19;;;;;;;3.92;2.10;;;6.30;99.90;;;;;;5014019;28;20041;-75
2022/01/15 03:23:46;;;;;;;4.03;2.72;;;6.40;99.90;;;;;;5014332;28;20082;-73
2022/01/15 03:26:13;;;;;;;5.18;3.00;;;6.30;99.90;;;;;;5014290;28;20467;-74
2022/01/15 03:28:39;;;;;;;5.30;3.05;;;6.30;99.90;;;;;;5014627;28;20061;-74
2022/01/15 03:31:06;;;;;;;4.68;2.40;;;6.40;99.90;;;;;;5014063;28;20050;-74
2022/01/15 03:33:32;;;;;;;4.85;2.67;;;6.30;99.90;;;;;;5014942;28;20038;-74
2022/01/15 03:35:58;;;;;;;6.20;1.85;;;6.40;99.90;;;;;;5014997;28;20137;-76
2022/01/15 03:38:23;;;;;;;4.82;2.17;;;6.40;99.90;;;;;;5015320;28;20124;-74
2022/01/15 03:40:52;;;;;;;5.45;2.90;;;6.40;99.90;;;;;;5014830;28;20062;-74
2022/01/15 03:43:17;;;;;;;7.15;3.92;;;6.40;99.90;;;;;;5013982;28;20386;-75
2022/01/15 03:45:43;;;;;;;6.93;3.78;;;6.40;99.90;;;;;;5015001;28;20132;-74
2022/01/15 03:48:09;;;;;;;9.40;5.25;;;6.40;99.90;;;;;;5015000;28;20046;-75
2022/01/15 03:50:34;;;;;;;9.70;4.80;;;6.40;99.90;;;;;;5014719;28;20104;-76
2022/01/15 03:53:00;;;;;;;3.92;2.83;;;6.40;99.90;;;;;;5014974;28;20050;-74
2022/01/15 03:55:26;;;;;;;8.77;4.78;;;6.40;99.90;;;;;;5013459;28;20103;-76
2022/01/15 03:57:52;;;;;;;8.32;3.92;;;6.40;99.90;;;;;;5013580;28;20121;-74
2022/01/15 04:00:22;;;;;;;7.50;4.00;;;6.40;99.90;;;;;;5014984;28;20332;-74
2022/01/15 04:02:48;;;;;;;10.63;5.00;;;6.40;99.90;;;;;;5013700;28;20321;-73
2022/01/15 04:05:15;;;;;;;10.15;5.30;;;6.40;99.90;;;;;;5014531;28;20045;-73
2022/01/15 04:07:41;;;;;;;9.45;4.43;;;6.40;99.90;;;;;;5014459;28;20152;-74
2022/01/15 04:10:09;;;;;;;8.30;4.78;;;6.40;99.90;;;;;;5014717;28;20111;-73
2022/01/15 04:12:35;;;;;;;8.27;4.47;;;6.40;99.90;;;;;;5014352;28;20099;-74
2022/01/15 04:15:01;;;;;;;11.57;5.40;;;6.40;99.90;;;;;;5014350;28;20045;-75
2022/01/15 04:17:27;;;;;;;13.13;5.55;;;6.40;99.90;;;;;;5013031;28;20042;-74
2022/01/15 04:19:53;;;;;;;10.05;3.97;;;6.40;99.90;;;;;;5013224;28;20539;-73
2022/01/15 04:22:18;;;;;;;8.13;3.40;;;6.40;99.90;;;;;;5013136;28;20129;-74
2022/01/15 04:24:44;;;;;;;9.05;4.10;;;6.40;99.90;;;;;;5014324;28;20164;-74
2022/01/15 04:27:10;;;;;;;14.38;4.95;;;6.40;99.90;;;;;;5014005;28;20069;-74
2022/01/15 04:29:36;;;;;;;17.17;5.15;;;6.40;99.90;;;;;;5014398;28;20042;-73
2022/01/15 04:32:02;;;;;;;13.00;4.53;;;6.40;99.90;;;;;;5014105;28;20038;-74
2022/01/15 04:34:29;;;;;;;15.25;4.35;;;6.40;99.90;;;;;;5012827;28;20184;-75
2022/01/15 04:37:14;;;;;;;6.22;3.47;;;6.30;99.90;;;;;;5014213;28;20041;-75
2022/01/15 04:39:42;;;;;;;8.90;3.53;;;6.40;99.90;;;;;;5013203;28;20046;-74
2022/01/15 04:42:08;;;;;;;8.43;3.50;;;6.30;99.90;;;;;;4996375;28;20042;-74
2022/01/15 04:44:34;;;;;;;8.00;3.50;;;6.30;99.90;;;;;;5014375;28;20199;-74
2022/01/15 04:47:03;;;;;;;7.10;3.38;;;6.30;99.90;;;;;;5014114;28;20456;-73
2022/01/15 04:49:30;;;;;;;8.55;3.58;;;6.40;99.90;;;;;;5014151;28;20061;-76
2022/01/15 04:51:55;;;;;;;6.82;3.40;;;6.40;99.90;;;;;;5012449;28;20090;-74
2022/01/15 04:54:21;;;;;;;8.27;3.50;;;6.40;99.90;;;;;;5014032;28;20053;-74
2022/01/15 04:56:46;;;;;;;6.05;3.35;;;6.80;99.90;;;;;;5013525;28;20044;-74
2022/01/15 04:59:12;;;;;;;9.38;4.03;;;6.30;99.90;;;;;;5013982;28;20041;-75
2022/01/15 05:01:38;;;;;;;7.03;4.03;;;6.40;99.90;;;;;;5012769;28;20037;-75
2022/01/15 05:04:04;;;;;;;5.95;3.28;;;6.40;99.90;;;;;;5013524;28;20054;-74
2022/01/15 05:06:29;;;;;;;6.47;3.55;;;6.40;99.90;;;;;;5013567;28;20095;-74
2022/01/15 05:09:04;;;;;;;10.30;3.65;;;6.40;99.90;;;;;;5012242;28;20045;-75
2022/01/15 05:11:43;;;;;;;6.78;3.17;;;6.40;99.90;;;;;;5011903;28;20075;-74
2022/01/15 05:14:10;;;;;;;11.35;4.30;;;6.40;99.90;;;;;;5013607;28;20326;-76
2022/01/15 05:16:36;;;;;;;7.40;3.53;;;6.40;99.90;;;;;;5013239;28;20453;-75
2022/01/15 05:19:02;;;;;;;9.82;3.30;;;6.40;99.90;;;;;;5013703;28;20037;-75
2022/01/15 05:21:27;;;;;;;10.05;3.63;;;6.40;99.90;;;;;;5013613;28;20168;-74
2022/01/15 05:23:53;;;;;;;7.15;3.25;;;6.40;99.90;;;;;;5013736;28;20336;-75
2022/01/15 05:26:19;;;;;;;6.90;3.30;;;6.40;99.90;;;;;;5013457;28;20099;-74
2022/01/15 05:28:44;;;;;;;7.43;3.00;;;6.40;99.90;;;;;;5012272;28;20344;-74
2022/01/15 05:31:10;;;;;;;12.15;4.10;;;6.40;99.90;;;;;;5011766;28;20598;-75
2022/01/15 05:33:35;;;;;;;7.88;4.03;;;6.40;99.90;;;;;;5012977;28;20042;-75
2022/01/15 05:36:01;;;;;;;7.63;3.22;;;6.40;99.90;;;;;;5012250;28;20072;-75
2022/01/15 05:38:27;;;;;;;6.30;3.65;;;6.40;99.90;;;;;;5012043;28;20053;-76
2022/01/15 05:40:53;;;;;;;6.25;3.30;;;6.40;99.90;;;;;;5011846;28;20038;-75
2022/01/15 05:43:18;;;;;;;10.77;4.25;;;6.40;99.90;;;;;;5013213;28;20053;-74
2022/01/15 05:45:45;;;;;;;7.13;3.65;;;6.50;99.90;;;;;;5011747;28;20044;-75
2022/01/15 05:48:11;;;;;;;8.18;3.67;;;6.40;99.90;;;;;;5011739;28;20049;-74
2022/01/15 05:50:37;;;;;;;10.30;4.07;;;6.40;99.90;;;;;;5012779;28;20062;-75
2022/01/15 05:53:02;;;;;;;7.65;3.83;;;6.60;99.90;;;;;;5011666;28;20092;-74
2022/01/15 05:55:28;;;;;;;7.68;3.78;;;6.40;99.90;;;;;;5012961;28;20073;-74
2022/01/15 05:57:54;;;;;;;7.50;4.00;;;6.40;99.90;;;;;;5011169;28;20057;-74
2022/01/15 06:00:19;;;;;;;7.72;3.95;;;6.40;99.90;;;;;;5012932;28;20080;-75
2022/01/15 06:02:45;;;;;;;9.32;3.92;;;6.40;99.90;;;;;;5011437;28;20140;-73
2022/01/15 06:05:11;;;;;;;9.48;4.22;;;6.50;99.90;;;;;;5012657;28;20049;-74
2022/01/15 06:07:37;;;;;;;8.07;3.90;;;6.40;99.90;;;;;;5012955;28;20048;-73
2022/01/15 06:10:04;;;;;;;6.00;3.28;;;6.40;99.90;;;;;;5011909;28;20046;-74
2022/01/15 06:12:32;;;;;;;8.00;4.32;;;6.40;99.90;;;;;;5012870;28;20450;-75
2022/01/15 06:14:58;;;;;;;7.43;4.35;;;6.40;99.90;;;;;;5013199;28;20052;-75
2022/01/15 06:17:25;;;;;;;10.20;3.30;;;6.40;99.90;;;;;;5010881;28;20114;-75
2022/01/15 06:19:51;;;;;;;6.65;3.58;;;6.40;99.90;;;;;;5012968;28;20116;-73
2022/01/15 06:22:16;;;;;;;8.13;4.20;;;6.40;99.90;;;;;;5013323;28;20050;-75
2022/01/15 06:24:42;;;;;;;8.82;4.15;;;6.40;99.90;;;;;;5012992;28;20082;-75
2022/01/15 06:27:11;;;;;;;8.23;4.25;;;6.40;99.90;;;;;;5011479;28;20034;-75
2022/01/15 06:29:38;;;;;;;8.73;4.97;;;6.40;99.90;;;;;;5012584;28;20052;-74
2022/01/15 06:32:04;;;;;;;8.13;5.25;;;6.40;99.90;;;;;;5012388;28;20042;-74
2022/01/15 06:34:30;;;;;;;12.93;6.10;;;6.40;99.90;;;;;;5012216;28;20041;-75
2022/01/15 06:36:55;;;;;;;8.52;4.45;;;6.40;99.90;;;;;;5012634;28;20034;-75
2022/01/15 06:39:21;;;;;;;8.10;4.80;;;6.40;99.90;;;;;;5012454;28;20427;-75
2022/01/15 06:41:46;;;;;;;9.70;5.57;;;6.40;99.90;;;;;;5011485;28;20042;-75
2022/01/15 06:44:12;;;;;;;9.35;5.70;;;6.50;99.90;;;;;;5015032;28;20100;-73
2022/01/15 06:46:38;;;;;;;9.18;5.43;;;6.60;99.90;;;;;;5016285;28;20515;-74
2022/01/15 06:49:03;;;;;;;9.43;5.22;;;6.40;99.90;;;;;;5014560;28;20053;-76
2022/01/15 06:51:29;;;;;;;12.35;6.05;;;6.40;99.90;;;;;;5014268;28;20104;-76
2022/01/15 06:53:55;;;;;;;14.73;5.88;;;6.40;99.90;;;;;;5016316;28;20112;-75
2022/01/15 06:56:20;;;;;;;10.75;5.68;;;6.40;99.90;;;;;;5015942;28;20040;-75
2022/01/15 06:58:46;;;;;;;13.82;5.80;;;6.40;99.90;;;;;;5014282;28;20052;-74
2022/01/15 07:01:12;;;;;;;12.70;6.05;;;6.40;99.90;;;;;;5015838;28;20442;-74
2022/01/15 07:03:38;;;;;;;15.10;6.55;;;6.40;99.90;;;;;;5014757;28;20077;-73
2022/01/15 07:06:03;;;;;;;15.63;6.57;;;6.40;99.90;;;;;;5014336;28;20123;-75
2022/01/15 07:08:29;;;;;;;14.68;7.35;;;6.40;99.90;;;;;;5014567;28;20046;-75
2022/01/15 07:10:58;;;;;;;10.85;5.97;;;6.40;99.90;;;;;;5014577;28;20427;-75
2022/01/15 07:13:25;;;;;;;11.68;6.00;;;6.70;99.90;;;;;;5015366;28;20038;-73
2022/01/15 07:15:51;;;;;;;12.57;5.90;;;6.40;99.90;;;;;;5014315;28;20096;-74
2022/01/15 07:18:16;;;;;;;8.20;4.47;;;6.40;99.90;;;;;;5015339;28;20470;-74
2022/01/15 07:20:43;;;;;;;11.18;5.50;;;6.30;99.90;;;;;;5014341;28;20470;-76
2022/01/15 07:23:10;;;;;;;8.82;5.47;;;6.90;99.90;;;;;;5014321;28;20046;-74
2022/01/15 07:25:36;;;;;;;10.35;4.88;;;6.30;99.90;;;;;;5015622;28;20134;-75
2022/01/15 07:28:01;;;;;;;9.90;5.38;;;6.40;99.90;;;;;;5015442;28;20116;-74
2022/01/15 07:30:27;;;;;;;13.60;6.60;;;6.30;99.90;;;;;;5015539;28;20040;-75
2022/01/15 07:32:53;;;;;;;13.00;6.93;;;5.90;99.90;;;;;;5014462;28;20050;-76
2022/01/15 07:35:19;;;;;;;10.90;6.30;;;6.40;99.90;;;;;;5015357;28;20042;-75
2022/01/15 07:37:45;;;;;;;12.88;6.43;;;6.30;99.90;;;;;;5015389;28;20041;-74
2022/01/15 07:40:11;;;;;;;11.48;5.88;;;6.30;99.90;;;;;;5015230;28;20034;-73
2022/01/15 07:42:39;;;;;;;12.18;6.72;;;6.30;99.90;;;;;;5015091;28;20044;-75
2022/01/15 07:45:10;;;;;;;13.35;6.63;;;6.20;99.90;;;;;;5014099;28;20134;-73
2022/01/15 07:47:37;;;;;;;12.57;6.20;;;6.30;99.90;;;;;;5015018;28;20579;-74
2022/01/15 07:50:09;;;;;;;9.52;5.68;;;6.30;99.90;;;;;;5014915;28;20034;-75
2022/01/15 07:52:35;;;;;;;8.50;4.50;;;6.30;99.90;;;;;;5014458;28;20565;-75
2022/01/15 07:55:02;;;;;;;7.60;4.65;;;6.30;99.90;;;;;;5013430;28;20447;-74
2022/01/15 07:57:27;;;;;;;8.50;4.75;;;6.30;99.90;;;;;;5014672;28;20049;-75
2022/01/15 07:59:53;;;;;;;10.32;5.10;;;6.30;99.90;;;;;;5013627;28;20321;-75
2022/01/15 08:02:19;;;;;;;8.82;4.93;;;6.30;99.90;;;;;;5013566;28;20081;-75
2022/01/15 08:04:44;;;;;;;9.07;4.30;;;6.30;99.90;;;;;;5014757;28;20165;-74
2022/01/15 08:07:10;;;;;;;8.52;4.85;;;6.20;99.90;;;;;;5014626;28;20391;-76
2022/01/15 08:09:37;;;;;;;11.15;5.82;;;6.20;99.90;;;;;;5013811;28;20436;-74
2022/01/15 08:12:03;;;;;;;7.65;4.70;;;6.30;99.90;;;;;;5013757;28;20038;-74
2022/01/15 08:14:29;;;;;;;8.38;5.30;;;6.30;99.90;;;;;;5013721;28;20049;-75
2022/01/15 08:16:55;;;;;;;7.18;4.50;;;6.30;99.90;;;;;;5013976;28;20056;-76
2022/01/15 08:19:21;;;;;;;9.30;4.32;;;6.30;99.90;;;;;;5014681;28;20034;-74
2022/01/15 08:21:46;;;;;;;7.10;4.40;;;6.20;99.90;;;;;;5014795;28;20420;-77
2022/01/15 08:24:12;;;;;;;5.65;3.78;;;6.30;99.90;;;;;;5014852;28;20045;-74
2022/01/15 08:26:38;;;;;;;6.10;3.72;;;6.30;99.90;;;;;;5014538;28;20065;-75
2022/01/15 08:29:05;;;;;;;9.48;4.40;;;6.30;99.90;;;;;;5014342;28;20041;-76
2022/01/15 08:31:31;;;;;;;7.45;4.32;;;6.20;99.90;;;;;;5014465;28;20037;-74
2022/01/15 08:33:56;;;;;;;7.15;4.45;;;6.20;99.90;;;;;;5014233;28;20044;-74
2022/01/15 08:36:22;;;;;;;6.90;3.80;;;6.30;99.90;;;;;;5014229;28;20041;-74
2022/01/15 08:38:49;;;;;;;6.93;3.92;;;6.30;99.90;;;;;;5014763;28;20038;-72
2022/01/15 08:41:15;;;;;;;6.38;4.35;;;6.30;99.90;;;;;;5012942;28;20046;-74
2022/01/15 08:43:42;;;;;;;8.43;4.07;;;6.30;99.90;;;;;;5014214;28;20084;-73
2022/01/15 08:46:08;;;;;;;7.68;4.88;;;6.30;99.90;;;;;;5014952;28;20041;-73
2022/01/15 08:48:34;;;;;;;8.02;4.57;;;6.30;99.90;;;;;;5013978;28;20052;-76
2022/01/15 08:51:00;;;;;;;8.02;4.15;;;6.30;99.90;;;;;;4996400;28;20065;-75
2022/01/15 08:53:26;;;;;;;10.30;4.63;;;;;;;;;;5013353;28;20046;-74
2022/01/15 08:55:53;;;;;;;7.50;4.32;;;6.30;99.90;;;;;;5014108;28;20164;-74
2022/01/15 08:58:19;;;;;;;5.65;3.95;;;6.30;99.90;;;;;;5013809;28;20057;-74
2022/01/15 09:00:46;;;;;;;7.82;4.55;;;6.30;99.90;;;;;;5012171;28;20048;-75
2022/01/15 09:03:12;;;;;;;11.50;4.75;;;6.30;99.90;;;;;;4996178;28;20092;-76
2022/01/15 09:05:38;;;;;;;7.40;3.88;;;6.30;99.90;;;;;;5012878;28;20042;-74
2022/01/15 09:08:05;;;;;;;6.57;3.88;;;6.30;99.90;;;;;;5012599;28;20419;-75
2022/01/15 09:10:30;;;;;;;6.70;4.07;;;6.30;99.90;;;;;;5013430;28;20054;-74
2022/01/15 09:12:56;;;;;;;8.38;4.88;;;6.30;99.90;;;;;;5013135;28;20042;-74
2022/01/15 09:15:22;;;;;;;6.00;3.88;;;6.30;99.90;;;;;;5012579;28;20068;-75
2022/01/15 09:17:48;;;;;;;10.35;4.38;;;6.30;99.90;;;;;;5013391;28;20104;-75
2022/01/15 09:20:14;;;;;;;8.82;4.80;;;6.30;99.90;;;;;;5013629;28;20637;-74
2022/01/15 09:22:40;;;;;;;8.13;3.92;;;6.20;99.90;;;;;;5011741;28;20172;-74
2022/01/15 09:25:07;;;;;;;7.93;4.00;;;6.30;99.90;;;;;;5013236;28;20041;-74
2022/01/15 09:30:17;;;;;;;5.28;3.80;;;6.30;99.90;;;;;;5011917;28;20042;-74
2022/01/15 09:32:54;;;;;;;5.65;3.55;;;6.30;99.90;;;;;;5011581;28;20108;-75
2022/01/15 09:35:26;;;;;;;5.97;3.28;;;6.20;99.90;;;;;;5011941;28;20129;-74
2022/01/15 09:37:52;;;;;;;6.25;3.28;;;6.30;99.90;;;;;;5012095;28;20072;-75
2022/01/15 09:40:19;;;;;;;6.57;3.33;;;6.30;99.90;;;;;;5012948;28;20030;-74
2022/01/15 09:42:47;;;;;;;5.28;3.03;;;6.90;99.90;;;;;;5027874;28;20350;-75
2022/01/15 09:45:13;;;;;;;5.05;2.75;;;6.20;99.90;;;;;;5032698;28;20079;-75
2022/01/15 09:47:41;;;;;;;5.00;3.15;;;6.20;99.90;;;;;;5032734;28;20037;-73
2022/01/15 09:50:09;;;;;;;6.93;3.00;;;;;;;;;;5032754;28;20068;-75
2022/01/15 09:52:35;;;;;;;5.68;3.28;;;6.20;99.90;;;;;;5032269;28;20447;-73
2022/01/15 09:55:06;;;;;;;5.63;2.90;;;6.20;99.90;;;;;;5032417;28;20491;-74
2022/01/15 09:57:32;;;;;;;5.25;2.97;;;6.20;99.90;;;;;;5033024;28;20044;-74
2022/01/15 09:59:57;;;;;;;5.93;3.42;;;6.30;99.90;;;;;;5032374;28;20041;-76
2022/01/15 10:02:23;;;;;;;6.60;3.90;;;;;;;;;;5031783;28;20080;-75
2022/01/15 10:04:49;;;;;;;8.38;4.32;;;6.30;99.90;;;;;;5031719;28;20436;-74
2022/01/15 10:07:22;;;;;;;6.97;4.75;;;6.30;99.90;;;;;;5032836;28;20091;-74
2022/01/15 10:09:49;;;;;;;9.43;5.43;;;6.30;99.90;;;;;;5032743;28;20083;-74
2022/01/15 10:12:31;;;;;;;11.70;6.90;;;6.30;99.90;;;;;;5032837;28;20038;-74
2022/01/15 10:15:01;;;;;;;11.68;6.75;;;6.30;99.90;;;;;;5032241;28;20038;-74
2022/01/15 10:17:35;;;;;;;11.80;7.28;;;6.30;99.90;;;;;;5033950;28;20045;-75
2022/01/15 10:20:05;;;;;;;10.77;7.78;;;6.40;99.90;;;;;;5036686;28;20091;-75
2022/01/15 10:22:34;;;;;;;12.23;7.65;;;6.40;99.90;;;;;;5036528;28;20148;-74
2022/01/15 10:25:15;;;;;;;14.13;8.55;;;6.40;99.90;;;;;;5035825;28;20129;-74
2022/01/15 10:27:43;;;;;;;12.82;8.35;;;6.40;99.90;;;;;;5034869;28;20453;-75
2022/01/15 10:30:21;;;;;;;14.45;8.43;;;6.40;99.90;;;;;;5035082;28;20498;-79
2022/01/15 10:33:08;;;;;;;14.35;9.10;;;6.40;99.90;;;;;;5036174;28;20092;-73
2022/01/15 10:35:39;;;;;;;14.32;9.13;;;6.40;99.90;;;;;;5036543;28;20061;-75
2022/01/15 10:38:18;;;;;;;17.30;9.98;;;6.40;99.90;;;;;;5035583;28;20104;-75
2022/01/15 10:40:50;;;;;;;14.98;9.93;;;6.40;99.90;;;;;;5041130;28;20494;-74
2022/01/15 10:43:18;;;;;;;16.13;10.15;;;6.50;99.90;;;;;;5039479;28;20124;-74
2022/01/15 10:45:55;;;;;;;15.07;10.43;;;6.50;99.90;;;;;;5038280;28;20044;-75
2022/01/15 10:48:31;;;;;;;15.70;10.43;;;6.60;99.90;;;;;;5020503;28;20131;-75
2022/01/15 10:51:00;;;;;;;15.40;10.63;;;6.60;99.90;;;;;;5038739;28;20045;-74
2022/01/15 10:53:41;;;;;;;16.40;10.55;;;6.50;99.90;;;;;;5037704;28;20132;-76
2022/01/15 10:56:08;;;;;;;15.02;10.63;;;6.50;99.90;;;;;;5038109;28;20034;-74
2022/01/15 10:58:35;;;;;;;13.48;9.68;;;6.60;99.90;;;;;;5038767;28;20077;-75
2022/01/15 11:01:01;;;;;;;15.23;10.02;;;6.50;99.90;;;;;;5037387;28;20427;-75
2022/01/15 11:03:45;;;;;;;14.25;9.48;;;6.40;99.90;;;;;;5038217;28;20053;-74
2022/01/15 11:06:12;;;;;;;20.08;9.32;;;;;;;;;;5037195;28;20049;-74
2022/01/15 11:08:39;;;;;;;12.85;8.95;;;6.30;99.90;;;;;;5037709;28;20037;-75
2022/01/15 11:11:07;;;;;;;14.80;9.35;;;6.30;99.90;;;;;;5037349;28;20052;-74
2022/01/15 11:13:35;;;;;;;13.98;9.25;;;6.30;99.90;;;;;;5037013;28;20415;-75
2022/01/15 11:16:05;;;;;;;18.13;10.13;;;6.30;99.90;;;;;;5038774;28;20083;-75
2022/01/15 11:18:33;;;;;;;14.40;9.48;;;6.30;99.90;;;;;;5021979;28;20060;-75
2022/01/15 11:21:10;;;;;;;15.70;9.95;;;6.40;99.90;;;;;;5038440;28;20716;-75
2022/01/15 11:23:40;;;;;;;17.48;10.88;;;6.40;99.90;;;;;;5038501;28;20152;-75
2022/01/15 11:26:20;;;;;;;16.20;10.95;;;6.40;99.90;;;;;;5039501;28;20061;-74
2022/01/15 11:28:46;;;;;;;18.23;10.52;;;6.40;99.90;;;;;;5035935;28;20037;-76
2022/01/15 11:31:19;;;;;;;13.63;9.23;;;6.40;99.90;;;;;;5038331;28;20037;-75
2022/01/15 11:33:51;;;;;;;14.05;9.35;;;6.50;99.90;;;;;;5039236;28;20045;-74
2022/01/15 11:36:36;;;;;;;17.27;9.35;;;6.50;99.90;;;;;;5038782;28;20041;-75
2022/01/15 11:39:07;;;;;;;16.48;9.57;;;6.50;99.90;;;;;;5038595;28;20052;-76
2022/01/15 11:41:45;;;;;;;16.40;11.00;;;6.50;99.90;;;;;;5038424;28;20033;-75
2022/01/15 11:44:16;;;;;;;17.80;10.13;;;6.50;99.90;;;;;;5039107;28;20128;-75
2022/01/15 11:46:53;;;;;;;18.70;11.48;;;6.50;99.90;;;;;;5038205;28;20071;-73
2022/01/15 11:49:45;;;;;;;19.42;11.15;;;6.50;99.90;;;;;;5039329;28;20038;-75
2022/01/15 11:52:11;;;;;;;18.02;11.75;;;6.50;99.90;;;;;;5038845;28;20143;-76
2022/01/15 11:55:04;;;;;;;19.45;12.55;;;6.40;99.90;;;;;;5035439;28;20057;-75
2022/01/15 11:57:46;;;;;;;18.48;11.68;;;6.50;99.90;;;;;;5034820;28;20128;-76
2022/01/15 12:00:27;;;;;;;19.98;12.32;;;6.50;99.90;;;;;;5037570;28;20045;-74
2022/01/15 12:02:56;;;;;;;19.63;12.73;;;6.50;99.90;;;;;;5034142;28;20124;-75
2022/01/15 12:05:22;;;;;;;20.10;13.45;;;6.40;99.90;;;;;;5035030;28;20047;-75
2022/01/15 12:08:08;;;;;;;21.13;13.65;;;6.50;99.90;;;;;;5035132;28;20049;-75
2022/01/15 12:11:08;;;;;;;25.67;14.50;;;6.30;99.90;;;;;;5032968;28;20041;-76
2022/01/15 12:13:43;;;;;;;21.80;13.73;;;6.30;99.90;;;;;;4994971;28;20447;-75
2022/01/15 12:16:24;;;;;;;26.17;14.73;;;;;;;;;;5013953;28;20034;-74
2022/01/15 12:18:51;;;;;;;22.52;15.55;;;6.10;99.90;;;;;;5012628;28;20054;-75
2022/01/15 12:21:43;;;;;;;24.27;14.65;;;6.10;99.90;;;;;;4996289;28;20041;-74
2022/01/15 12:24:34;;;;;;;24.05;13.88;;;6.10;99.90;;;;;;5014057;28;20042;-74
2022/01/15 12:27:00;;;;;;;20.90;14.20;;;6.20;99.90;;;;;;5014016;28;20053;-75
2022/01/15 12:29:26;;;;;;;21.38;13.60;;;6.10;99.90;;;;;;5015057;28;20041;-75
2022/01/15 12:31:52;;;;;;;20.10;14.07;;;6.10;99.90;;;;;;5014014;28;20042;-76
2022/01/15 12:34:28;;;;;;;19.70;13.50;;;6.10;99.90;;;;;;5013874;28;20042;-74
2022/01/15 12:36:54;;;;;;;17.77;12.50;;;6.10;99.90;;;;;;5014225;28;20038;-75
2022/01/15 12:39:38;;;;;;;18.40;12.88;;;6.20;99.90;;;;;;4997384;28;20046;-75
2022/01/15 12:42:05;;;;;;;20.52;12.85;;;5.90;99.90;;;;;;5014783;28;20680;-74
2022/01/15 12:44:46;;;;;;;21.52;15.05;;;6.00;99.90;;;;;;5018399;28;20057;-74
2022/01/15 12:47:13;;;;;;;18.75;13.82;;;6.00;99.90;;;;;;5019335;28;20050;-74
2022/01/15 12:49:40;;;;;;;20.75;13.82;;;;;;;;;;5016920;28;20077;-75
2022/01/15 12:52:22;;;;;;;19.60;14.23;;;6.00;99.90;;;;;;5012889;28;20105;-74
2022/01/15 12:54:49;;;;;;;19.42;14.38;;;6.00;99.90;;;;;;5013680;28;20064;-74
2022/01/15 12:57:40;;;;;;;22.15;16.45;;;6.00;99.90;;;;;;5013438;28;20030;-75
2022/01/15 13:00:06;;;;;;;22.83;15.20;;;;;;;;;;5024337;28;20046;-74
2022/01/15 13:02:32;;;;;;;20.48;15.50;;;6.00;99.90;;;;;;5032068;28;20077;-75
2022/01/15 13:04:57;;;;;;;23.27;15.63;;;7.20;99.90;;;;;;5033188;28;20080;-75
2022/01/15 13:07:23;;;;;;;21.40;15.88;;;6.10;99.90;;;;;;5033798;28;20041;-75
2022/01/15 13:09:48;;;;;;;22.02;16.10;;;6.00;99.90;;;;;;5033338;28;20049;-76
2022/01/15 13:12:14;;;;;;;20.95;16.05;;;6.00;99.90;;;;;;5033276;28;20124;-74
2022/01/15 13:14:42;;;;;;;20.50;15.82;;;6.00;99.90;;;;;;5031501;28;20127;-75
2022/01/15 13:17:21;;;;;;;22.48;16.98;;;5.80;99.90;;;;;;5033493;28;20037;-75
2022/01/15 13:19:46;;;;;;;24.00;18.27;;;5.80;99.90;;;;;;5033424;28;20045;-74
2022/01/15 13:22:12;;;;;;;25.65;17.40;;;;;;;;;;5031948;28;20064;-74
2022/01/15 13:24:38;;;;;;;26.63;18.15;;;5.80;99.90;;;;;;5033047;28;20044;-74